sensor_id;sensor_type;location;lat;lon;timestamp;pressure;altitude;pressure_sealevel;temperature;humidity
1616;BME280;801;47.982;7.810;2023-06-24T00:02:25;99393.59;;;19.32;100.00
1616;BME280;801;47.982;7.810;2023-06-24T00:04:52;99405.25;;;19.18;100.00
1616;BME280;801;47.982;7.810;2023-06-24T00:07:18;99407.56;;;18.92;100.00
1616;BME280;801;47.982;7.810;2023-06-24T00:09:47;99400.50;;;18.91;100.00
1616;BME280;801;47.982;7.810;2023-06-24T00:12:14;99400.69;;;18.95;100.00
1616;BME280;801;47.982;7.810;2023-06-24T00:14:44;99398.50;;;18.97;100.00
1616;BME280;801;47.982;7.810;2023-06-24T00:17:10;99406.94;;;18.95;100.00
1616;BME280;801;47.982;7.810;2023-06-24T00:19:38;99401.13;;;19.02;100.00
1616;BME280;801;47.982;7.810;2023-06-24T00:22:05;99399.84;;;18.80;100.00
1616;BME280;801;47.982;7.810;2023-06-24T00:24:31;99400.97;;;18.74;100.00
1616;BME280;801;47.982;7.810;2023-06-24T00:26:58;99400.69;;;18.76;100.00
1616;BME280;801;47.982;7.810;2023-06-24T00:29:24;99402.91;;;18.74;100.00
1616;BME280;801;47.982;7.810;2023-06-24T00:31:51;99403.41;;;18.95;100.00
1616;BME280;801;47.982;7.810;2023-06-24T00:34:17;99416.28;;;19.08;100.00
1616;BME280;801;47.982;7.810;2023-06-24T00:36:46;99409.66;;;19.14;100.00
1616;BME280;801;47.982;7.810;2023-06-24T00:39:13;99408.03;;;19.13;100.00
1616;BME280;801;47.982;7.810;2023-06-24T00:41:39;99404.72;;;19.16;100.00
1616;BME280;801;47.982;7.810;2023-06-24T00:44:06;99410.19;;;19.16;100.00
1616;BME280;801;47.982;7.810;2023-06-24T00:46:33;99410.25;;;19.11;100.00
1616;BME280;801;47.982;7.810;2023-06-24T00:49:00;99422.41;;;19.00;100.00
1616;BME280;801;47.982;7.810;2023-06-24T00:51:28;99424.56;;;19.03;100.00
1616;BME280;801;47.982;7.810;2023-06-24T00:53:58;99422.63;;;19.03;100.00
1616;BME280;801;47.982;7.810;2023-06-24T00:56:29;99425.13;;;19.00;100.00
1616;BME280;801;47.982;7.810;2023-06-24T00:58:57;99425.63;;;19.02;100.00
1616;BME280;801;47.982;7.810;2023-06-24T01:01:24;99417.69;;;19.05;100.00
1616;BME280;801;47.982;7.810;2023-06-24T01:03:51;99424.19;;;19.10;100.00
1616;BME280;801;47.982;7.810;2023-06-24T01:06:18;99430.09;;;18.98;100.00
1616;BME280;801;47.982;7.810;2023-06-24T01:08:44;99423.66;;;18.88;100.00
1616;BME280;801;47.982;7.810;2023-06-24T01:11:23;99425.44;;;18.79;100.00
1616;BME280;801;47.982;7.810;2023-06-24T01:13:50;99428.38;;;18.83;100.00
1616;BME280;801;47.982;7.810;2023-06-24T01:16:23;99425.75;;;18.73;100.00
1616;BME280;801;47.982;7.810;2023-06-24T01:18:56;99425.44;;;18.79;100.00
1616;BME280;801;47.982;7.810;2023-06-24T01:21:33;99430.34;;;18.77;100.00
1616;BME280;801;47.982;7.810;2023-06-24T01:24:31;99424.88;;;18.58;100.00
1616;BME280;801;47.982;7.810;2023-06-24T01:27:19;99422.97;;;18.59;100.00
1616;BME280;801;47.982;7.810;2023-06-24T01:30:22;99423.03;;;18.54;100.00
1616;BME280;801;47.982;7.810;2023-06-24T01:32:58;99422.38;;;18.43;100.00
1616;BME280;801;47.982;7.810;2023-06-24T01:35:29;99423.69;;;18.45;100.00
1616;BME280;801;47.982;7.810;2023-06-24T01:38:00;99423.16;;;18.43;100.00
1616;BME280;801;47.982;7.810;2023-06-24T01:40:31;99428.16;;;18.36;100.00
1616;BME280;801;47.982;7.810;2023-06-24T01:43:00;99424.00;;;18.20;100.00
1616;BME280;801;47.982;7.810;2023-06-24T01:45:31;99426.72;;;18.20;100.00
1616;BME280;801;47.982;7.810;2023-06-24T01:48:02;99436.41;;;18.07;100.00
1616;BME280;801;47.982;7.810;2023-06-24T01:50:33;99426.56;;;18.11;100.00
1616;BME280;801;47.982;7.810;2023-06-24T01:53:04;99425.75;;;18.11;100.00
1616;BME280;801;47.982;7.810;2023-06-24T01:55:33;99422.19;;;18.10;100.00
1616;BME280;801;47.982;7.810;2023-06-24T01:58:02;99426.78;;;18.15;100.00
1616;BME280;801;47.982;7.810;2023-06-24T02:00:33;99427.13;;;18.08;100.00
1616;BME280;801;47.982;7.810;2023-06-24T02:03:04;99425.84;;;18.00;100.00
1616;BME280;801;47.982;7.810;2023-06-24T02:05:32;99428.84;;;17.99;100.00
1616;BME280;801;47.982;7.810;2023-06-24T02:07:59;99430.25;;;17.96;100.00
1616;BME280;801;47.982;7.810;2023-06-24T02:10:28;99430.25;;;17.96;100.00
1616;BME280;801;47.982;7.810;2023-06-24T02:12:56;99424.94;;;17.86;100.00
1616;BME280;801;47.982;7.810;2023-06-24T02:15:23;99421.69;;;17.79;100.00
1616;BME280;801;47.982;7.810;2023-06-24T02:17:52;99422.78;;;17.83;100.00
1616;BME280;801;47.982;7.810;2023-06-24T02:20:23;99425.00;;;17.76;100.00
1616;BME280;801;47.982;7.810;2023-06-24T02:22:52;99423.63;;;17.78;100.00
1616;BME280;801;47.982;7.810;2023-06-24T02:25:20;99423.88;;;17.77;100.00
1616;BME280;801;47.982;7.810;2023-06-24T02:27:46;99426.47;;;17.63;100.00
1616;BME280;801;47.982;7.810;2023-06-24T02:30:14;99418.78;;;17.70;100.00
1616;BME280;801;47.982;7.810;2023-06-24T02:32:41;99426.81;;;17.56;100.00
1616;BME280;801;47.982;7.810;2023-06-24T02:35:08;99433.84;;;17.62;100.00
1616;BME280;801;47.982;7.810;2023-06-24T02:37:36;99430.31;;;17.62;100.00
1616;BME280;801;47.982;7.810;2023-06-24T02:40:03;99434.81;;;17.72;100.00
1616;BME280;801;47.982;7.810;2023-06-24T02:42:31;99436.78;;;17.66;100.00
1616;BME280;801;47.982;7.810;2023-06-24T02:44:57;99435.75;;;17.62;100.00
1616;BME280;801;47.982;7.810;2023-06-24T02:47:24;99435.28;;;17.55;100.00
1616;BME280;801;47.982;7.810;2023-06-24T02:49:52;99429.00;;;17.54;100.00
1616;BME280;801;47.982;7.810;2023-06-24T02:52:21;99436.63;;;17.52;100.00
1616;BME280;801;47.982;7.810;2023-06-24T02:54:49;99436.41;;;17.49;100.00
1616;BME280;801;47.982;7.810;2023-06-24T02:57:16;99428.47;;;17.52;100.00
1616;BME280;801;47.982;7.810;2023-06-24T02:59:45;99431.84;;;17.44;100.00
1616;BME280;801;47.982;7.810;2023-06-24T03:02:12;99430.97;;;17.49;100.00
1616;BME280;801;47.982;7.810;2023-06-24T03:04:39;99433.88;;;17.57;100.00
1616;BME280;801;47.982;7.810;2023-06-24T03:07:06;99439.88;;;17.54;100.00
1616;BME280;801;47.982;7.810;2023-06-24T03:09:35;99437.78;;;17.46;100.00
1616;BME280;801;47.982;7.810;2023-06-24T03:12:05;99439.97;;;17.44;100.00
1616;BME280;801;47.982;7.810;2023-06-24T03:14:32;99436.72;;;17.42;100.00
1616;BME280;801;47.982;7.810;2023-06-24T03:16:58;99443.75;;;17.48;100.00
1616;BME280;801;47.982;7.810;2023-06-24T03:19:25;99443.22;;;17.46;100.00
1616;BME280;801;47.982;7.810;2023-06-24T03:21:51;99448.72;;;17.36;100.00
1616;BME280;801;47.982;7.810;2023-06-24T03:24:18;99440.16;;;17.24;100.00
1616;BME280;801;47.982;7.810;2023-06-24T03:26:44;99442.34;;;17.21;100.00
1616;BME280;801;47.982;7.810;2023-06-24T03:29:12;99439.56;;;17.27;100.00
1616;BME280;801;47.982;7.810;2023-06-24T03:31:38;99449.31;;;17.33;100.00
1616;BME280;801;47.982;7.810;2023-06-24T03:34:10;99446.09;;;17.26;100.00
1616;BME280;801;47.982;7.810;2023-06-24T03:36:37;99443.38;;;17.26;100.00
1616;BME280;801;47.982;7.810;2023-06-24T03:39:04;99443.63;;;17.29;100.00
1616;BME280;801;47.982;7.810;2023-06-24T03:41:31;99455.53;;;17.33;100.00
1616;BME280;801;47.982;7.810;2023-06-24T03:43:58;99452.88;;;17.28;100.00
1616;BME280;801;47.982;7.810;2023-06-24T03:46:26;99448.84;;;17.20;100.00
1616;BME280;801;47.982;7.810;2023-06-24T03:48:57;99450.75;;;17.20;100.00
1616;BME280;801;47.982;7.810;2023-06-24T03:51:24;99455.91;;;17.21;100.00
1616;BME280;801;47.982;7.810;2023-06-24T03:53:50;99454.31;;;17.15;100.00
1616;BME280;801;47.982;7.810;2023-06-24T03:56:17;99453.78;;;17.13;100.00
1616;BME280;801;47.982;7.810;2023-06-24T03:58:43;99460.28;;;17.17;100.00
1616;BME280;801;47.982;7.810;2023-06-24T04:01:10;99459.75;;;17.15;100.00
1616;BME280;801;47.982;7.810;2023-06-24T04:03:38;99460.88;;;17.09;100.00
1616;BME280;801;47.982;7.810;2023-06-24T04:06:04;99459.53;;;17.07;100.00
1616;BME280;801;47.982;7.810;2023-06-24T04:08:31;99457.88;;;17.11;100.00
1616;BME280;801;47.982;7.810;2023-06-24T04:10:57;99458.22;;;17.04;100.00
1616;BME280;801;47.982;7.810;2023-06-24T04:13:25;99464.16;;;17.06;100.00
1616;BME280;801;47.982;7.810;2023-06-24T04:15:51;99463.06;;;17.07;100.00
1616;BME280;801;47.982;7.810;2023-06-24T04:18:19;99467.97;;;17.05;100.00
1616;BME280;801;47.982;7.810;2023-06-24T04:20:47;99462.19;;;17.17;100.00
1616;BME280;801;47.982;7.810;2023-06-24T04:23:14;99462.91;;;17.28;100.00
1616;BME280;801;47.982;7.810;2023-06-24T04:25:40;99466.47;;;17.23;100.00
1616;BME280;801;47.982;7.810;2023-06-24T04:28:07;99465.63;;;17.28;100.00
1616;BME280;801;47.982;7.810;2023-06-24T04:30:34;99462.38;;;17.31;100.00
1616;BME280;801;47.982;7.810;2023-06-24T04:33:03;99459.13;;;17.29;100.00
1616;BME280;801;47.982;7.810;2023-06-24T04:35:30;99466.97;;;17.30;100.00
1616;BME280;801;47.982;7.810;2023-06-24T04:37:58;99464.44;;;17.39;100.00
1616;BME280;801;47.982;7.810;2023-06-24T04:40:24;99471.75;;;17.43;100.00
1616;BME280;801;47.982;7.810;2023-06-24T04:42:51;99477.44;;;17.47;100.00
1616;BME280;801;47.982;7.810;2023-06-24T04:45:17;99486.94;;;17.50;100.00
1616;BME280;801;47.982;7.810;2023-06-24T04:47:44;99486.06;;;17.54;100.00
1616;BME280;801;47.982;7.810;2023-06-24T04:50:10;99482.28;;;17.55;100.00
1616;BME280;801;47.982;7.810;2023-06-24T04:52:38;99484.47;;;17.53;100.00
1616;BME280;801;47.982;7.810;2023-06-24T04:55:07;99480.38;;;17.56;100.00
1616;BME280;801;47.982;7.810;2023-06-24T04:57:34;99477.38;;;17.57;100.00
1616;BME280;801;47.982;7.810;2023-06-24T05:00:00;99480.09;;;17.52;100.00
1616;BME280;801;47.982;7.810;2023-06-24T05:02:27;99480.09;;;17.57;100.00
1616;BME280;801;47.982;7.810;2023-06-24T05:04:53;99483.28;;;17.64;100.00
1616;BME280;801;47.982;7.810;2023-06-24T05:07:20;99484.28;;;17.74;100.00
1616;BME280;801;47.982;7.810;2023-06-24T05:09:47;99485.41;;;17.73;100.00
1616;BME280;801;47.982;7.810;2023-06-24T05:12:15;99480.97;;;17.77;100.00
1616;BME280;801;47.982;7.810;2023-06-24T05:14:42;99485.31;;;17.83;100.00
1616;BME280;801;47.982;7.810;2023-06-24T05:17:08;99475.53;;;17.82;100.00
1616;BME280;801;47.982;7.810;2023-06-24T05:19:35;99482.53;;;17.88;100.00
1616;BME280;801;47.982;7.810;2023-06-24T05:22:02;99487.34;;;17.96;100.00
1616;BME280;801;47.982;7.810;2023-06-24T05:24:28;99484.31;;;18.03;100.00
1616;BME280;801;47.982;7.810;2023-06-24T05:26:55;99485.59;;;18.11;100.00
1616;BME280;801;47.982;7.810;2023-06-24T05:29:23;99487.66;;;18.19;100.00
1616;BME280;801;47.982;7.810;2023-06-24T05:31:49;99481.59;;;18.27;100.00
1616;BME280;801;47.982;7.810;2023-06-24T05:34:16;99489.69;;;18.32;100.00
1616;BME280;801;47.982;7.810;2023-06-24T05:36:42;99487.75;;;18.38;100.00
1616;BME280;801;47.982;7.810;2023-06-24T05:39:09;99491.63;;;18.32;100.00
1616;BME280;801;47.982;7.810;2023-06-24T05:41:36;99496.34;;;18.45;100.00
1616;BME280;801;47.982;7.810;2023-06-24T05:44:04;99498.28;;;18.44;100.00
1616;BME280;801;47.982;7.810;2023-06-24T05:46:32;99496.94;;;18.42;100.00
1616;BME280;801;47.982;7.810;2023-06-24T05:48:59;99500.13;;;18.49;100.00
1616;BME280;801;47.982;7.810;2023-06-24T05:51:25;99499.25;;;18.54;100.00
1616;BME280;801;47.982;7.810;2023-06-24T05:53:52;99497.56;;;18.58;100.00
1616;BME280;801;47.982;7.810;2023-06-24T05:56:22;99505.59;;;18.68;100.00
1616;BME280;801;47.982;7.810;2023-06-24T05:58:48;99503.81;;;18.82;100.00
1616;BME280;801;47.982;7.810;2023-06-24T06:01:15;99504.78;;;18.92;100.00
1616;BME280;801;47.982;7.810;2023-06-24T06:03:43;99502.59;;;18.94;100.00
1616;BME280;801;47.982;7.810;2023-06-24T06:06:09;99501.03;;;18.87;100.00
1616;BME280;801;47.982;7.810;2023-06-24T06:08:36;99507.94;;;18.99;100.00
1616;BME280;801;47.982;7.810;2023-06-24T06:11:02;99506.69;;;19.10;100.00
1616;BME280;801;47.982;7.810;2023-06-24T06:13:29;99507.75;;;19.14;100.00
1616;BME280;801;47.982;7.810;2023-06-24T06:15:55;99508.81;;;19.13;100.00
1616;BME280;801;47.982;7.810;2023-06-24T06:18:22;99499.47;;;19.19;100.00
1616;BME280;801;47.982;7.810;2023-06-24T06:20:50;99502.72;;;19.21;100.00
1616;BME280;801;47.982;7.810;2023-06-24T06:23:17;99512.38;;;19.14;100.00
1616;BME280;801;47.982;7.810;2023-06-24T06:25:43;99502.50;;;19.18;100.00
1616;BME280;801;47.982;7.810;2023-06-24T06:28:10;99500.44;;;19.28;100.00
1616;BME280;801;47.982;7.810;2023-06-24T06:30:36;99498.28;;;19.44;100.00
1616;BME280;801;47.982;7.810;2023-06-24T06:33:03;99506.06;;;19.51;100.00
1616;BME280;801;47.982;7.810;2023-06-24T06:35:29;99507.34;;;19.59;100.00
1616;BME280;801;47.982;7.810;2023-06-24T06:37:58;99510.19;;;19.67;100.00
1616;BME280;801;47.982;7.810;2023-06-24T06:40:25;99507.53;;;19.62;100.00
1616;BME280;801;47.982;7.810;2023-06-24T06:42:56;99502.78;;;19.54;100.00
1616;BME280;801;47.982;7.810;2023-06-24T06:45:22;99497.50;;;19.58;100.00
1616;BME280;801;47.982;7.810;2023-06-24T06:47:49;99502.06;;;19.62;100.00
1616;BME280;801;47.982;7.810;2023-06-24T06:50:16;99503.16;;;19.47;100.00
1616;BME280;801;47.982;7.810;2023-06-24T06:52:42;99503.09;;;19.66;100.00
1616;BME280;801;47.982;7.810;2023-06-24T06:55:10;99502.38;;;19.80;100.00
1616;BME280;801;47.982;7.810;2023-06-24T06:57:37;99496.72;;;19.76;100.00
1616;BME280;801;47.982;7.810;2023-06-24T07:00:04;99503.41;;;19.65;100.00
1616;BME280;801;47.982;7.810;2023-06-24T07:02:31;99497.13;;;19.83;100.00
1616;BME280;801;47.982;7.810;2023-06-24T07:04:59;99504.03;;;19.95;100.00
1616;BME280;801;47.982;7.810;2023-06-24T07:07:26;99498.06;;;20.06;100.00
1616;BME280;801;47.982;7.810;2023-06-24T07:09:52;99496.06;;;20.12;100.00
1616;BME280;801;47.982;7.810;2023-06-24T07:12:20;99498.41;;;20.19;100.00
1616;BME280;801;47.982;7.810;2023-06-24T07:14:49;99492.94;;;20.19;100.00
1616;BME280;801;47.982;7.810;2023-06-24T07:17:15;99496.09;;;20.26;100.00
1616;BME280;801;47.982;7.810;2023-06-24T07:19:42;99493.13;;;20.22;100.00
1616;BME280;801;47.982;7.810;2023-06-24T07:22:08;99496.59;;;20.28;100.00
1616;BME280;801;47.982;7.810;2023-06-24T07:24:35;99488.09;;;20.43;100.00
1616;BME280;801;47.982;7.810;2023-06-24T07:27:07;99488.38;;;20.56;100.00
1616;BME280;801;47.982;7.810;2023-06-24T07:29:35;99493.97;;;20.50;100.00
1616;BME280;801;47.982;7.810;2023-06-24T07:32:01;99501.63;;;20.48;100.00
1616;BME280;801;47.982;7.810;2023-06-24T07:34:29;99492.78;;;20.57;100.00
1616;BME280;801;47.982;7.810;2023-06-24T07:36:55;99491.34;;;20.73;100.00
1616;BME280;801;47.982;7.810;2023-06-24T07:39:22;99484.88;;;20.69;100.00
1616;BME280;801;47.982;7.810;2023-06-24T07:41:48;99478.97;;;20.76;100.00
1616;BME280;801;47.982;7.810;2023-06-24T07:44:15;99486.75;;;20.82;100.00
1616;BME280;801;47.982;7.810;2023-06-24T07:46:43;99485.66;;;20.83;100.00
1616;BME280;801;47.982;7.810;2023-06-24T07:49:09;99486.03;;;20.90;100.00
1616;BME280;801;47.982;7.810;2023-06-24T07:51:36;99486.63;;;20.87;100.00
1616;BME280;801;47.982;7.810;2023-06-24T07:54:02;99477.31;;;21.02;100.00
1616;BME280;801;47.982;7.810;2023-06-24T07:56:29;99473.16;;;21.05;100.00
1616;BME280;801;47.982;7.810;2023-06-24T07:58:55;99476.88;;;21.09;100.00
1616;BME280;801;47.982;7.810;2023-06-24T08:01:22;99472.41;;;21.13;100.00
1616;BME280;801;47.982;7.810;2023-06-24T08:03:50;99473.56;;;21.34;100.00
1616;BME280;801;47.982;7.810;2023-06-24T08:06:16;99474.00;;;21.28;100.00
1616;BME280;801;47.982;7.810;2023-06-24T08:08:42;99470.59;;;21.45;100.00
1616;BME280;801;47.982;7.810;2023-06-24T08:11:11;99475.50;;;21.56;100.00
1616;BME280;801;47.982;7.810;2023-06-24T08:13:37;99467.03;;;21.67;100.00
1616;BME280;801;47.982;7.810;2023-06-24T08:16:05;99466.34;;;21.92;99.63
1616;BME280;801;47.982;7.810;2023-06-24T08:18:31;99465.31;;;22.02;98.34
1616;BME280;801;47.982;7.810;2023-06-24T08:20:59;99456.19;;;22.15;97.78
1616;BME280;801;47.982;7.810;2023-06-24T08:23:26;99457.97;;;22.20;96.42
1616;BME280;801;47.982;7.810;2023-06-24T08:25:52;99450.31;;;22.31;94.01
1616;BME280;801;47.982;7.810;2023-06-24T08:28:19;99441.13;;;22.35;93.78
1616;BME280;801;47.982;7.810;2023-06-24T08:30:45;99444.38;;;22.37;90.45
1616;BME280;801;47.982;7.810;2023-06-24T08:33:11;99430.97;;;22.36;91.61
1616;BME280;801;47.982;7.810;2023-06-24T08:35:38;99434.59;;;22.63;89.87
1616;BME280;801;47.982;7.810;2023-06-24T08:38:06;99436.34;;;22.58;87.05
1616;BME280;801;47.982;7.810;2023-06-24T08:40:32;99433.63;;;22.67;88.59
1616;BME280;801;47.982;7.810;2023-06-24T08:42:59;99429.28;;;22.84;89.63
1616;BME280;801;47.982;7.810;2023-06-24T08:45:25;99426.28;;;23.03;87.33
1616;BME280;801;47.982;7.810;2023-06-24T08:47:52;99440.75;;;22.94;86.49
1616;BME280;801;47.982;7.810;2023-06-24T08:50:19;99428.53;;;23.18;86.25
1616;BME280;801;47.982;7.810;2023-06-24T08:52:50;99428.53;;;23.18;85.26
1616;BME280;801;47.982;7.810;2023-06-24T08:55:22;99423.66;;;23.32;86.33
1616;BME280;801;47.982;7.810;2023-06-24T08:57:48;99432.03;;;23.45;85.49
1616;BME280;801;47.982;7.810;2023-06-24T09:00:16;99426.03;;;23.60;84.05
1616;BME280;801;47.982;7.810;2023-06-24T09:02:42;99430.84;;;23.72;82.44
1616;BME280;801;47.982;7.810;2023-06-24T09:05:09;99430.34;;;23.78;84.00
1616;BME280;801;47.982;7.810;2023-06-24T09:07:36;99424.88;;;23.78;81.48
1616;BME280;801;47.982;7.810;2023-06-24T09:10:03;99429.34;;;23.92;81.64
1616;BME280;801;47.982;7.810;2023-06-24T09:12:33;99419.53;;;23.73;83.40
1616;BME280;801;47.982;7.810;2023-06-24T09:15:00;99416.06;;;24.02;81.23
1616;BME280;801;47.982;7.810;2023-06-24T09:17:26;99418.38;;;24.21;80.14
1616;BME280;801;47.982;7.810;2023-06-24T09:19:54;99413.72;;;24.52;82.52
1616;BME280;801;47.982;7.810;2023-06-24T09:22:21;99406.63;;;24.72;78.41
1616;BME280;801;47.982;7.810;2023-06-24T09:24:48;99402.16;;;24.67;77.88
1616;BME280;801;47.982;7.810;2023-06-24T09:27:15;99410.31;;;24.46;77.71
1616;BME280;801;47.982;7.810;2023-06-24T09:29:46;99400.00;;;24.43;78.09
1616;BME280;801;47.982;7.810;2023-06-24T09:32:14;99397.25;;;24.52;77.13
1616;BME280;801;47.982;7.810;2023-06-24T09:34:41;99385.03;;;24.61;76.52
1616;BME280;801;47.982;7.810;2023-06-24T09:37:07;99383.03;;;24.71;76.28
1616;BME280;801;47.982;7.810;2023-06-24T09:39:37;99387.84;;;24.95;74.75
1616;BME280;801;47.982;7.810;2023-06-24T09:42:05;99386.22;;;24.94;75.78
1616;BME280;801;47.982;7.810;2023-06-24T09:44:33;99381.19;;;25.17;75.09
1616;BME280;801;47.982;7.810;2023-06-24T09:47:01;99378.00;;;25.27;75.31
1616;BME280;801;47.982;7.810;2023-06-24T09:49:28;99373.28;;;25.61;71.71
1616;BME280;801;47.982;7.810;2023-06-24T09:51:56;99370.78;;;25.68;70.06
1616;BME280;801;47.982;7.810;2023-06-24T09:54:25;99373.22;;;26.06;68.52
1616;BME280;801;47.982;7.810;2023-06-24T09:56:52;99378.38;;;25.83;65.22
1616;BME280;801;47.982;7.810;2023-06-24T09:59:20;99368.06;;;25.93;65.52
1616;BME280;801;47.982;7.810;2023-06-24T10:01:47;99364.03;;;26.02;65.05
1616;BME280;801;47.982;7.810;2023-06-24T10:04:17;99350.34;;;26.55;66.02
1616;BME280;801;47.982;7.810;2023-06-24T10:06:44;99361.72;;;26.41;61.13
1616;BME280;801;47.982;7.810;2023-06-24T10:09:11;99346.44;;;26.32;65.96
1616;BME280;801;47.982;7.810;2023-06-24T10:11:38;99352.66;;;26.16;62.35
1616;BME280;801;47.982;7.810;2023-06-24T10:14:05;99346.47;;;25.70;63.89
1616;BME280;801;47.982;7.810;2023-06-24T10:16:32;99346.13;;;25.84;66.70
1616;BME280;801;47.982;7.810;2023-06-24T10:19:00;99334.75;;;26.22;60.12
1616;BME280;801;47.982;7.810;2023-06-24T10:21:44;99329.41;;;26.54;59.12
1616;BME280;801;47.982;7.810;2023-06-24T10:24:11;99323.34;;;26.89;59.02
1616;BME280;801;47.982;7.810;2023-06-24T10:26:40;99325.25;;;27.17;58.92
1616;BME280;801;47.982;7.810;2023-06-24T10:29:10;99334.31;;;27.45;53.87
1616;BME280;801;47.982;7.810;2023-06-24T10:31:52;99320.69;;;27.37;53.49
1616;BME280;801;47.982;7.810;2023-06-24T10:34:33;99321.06;;;27.51;51.18
1616;BME280;801;47.982;7.810;2023-06-24T10:37:03;99317.22;;;27.56;51.35
1616;BME280;801;47.982;7.810;2023-06-24T10:39:50;99323.09;;;27.70;50.34
1616;BME280;801;47.982;7.810;2023-06-24T10:42:30;99315.50;;;27.83;50.01
1616;BME280;801;47.982;7.810;2023-06-24T10:44:59;99306.19;;;27.56;49.07
1616;BME280;801;47.982;7.810;2023-06-24T10:47:27;99299.22;;;27.62;48.31
1616;BME280;801;47.982;7.810;2023-06-24T10:49:54;99308.84;;;27.68;48.28
1616;BME280;801;47.982;7.810;2023-06-24T10:52:22;99304.03;;;27.81;49.46
1616;BME280;801;47.982;7.810;2023-06-24T10:54:50;99297.16;;;27.74;48.22
1616;BME280;801;47.982;7.810;2023-06-24T10:57:21;99290.88;;;28.45;50.17
1616;BME280;801;47.982;7.810;2023-06-24T10:59:48;99295.06;;;28.97;47.50
1616;BME280;801;47.982;7.810;2023-06-24T11:02:16;99285.78;;;28.66;47.54
1616;BME280;801;47.982;7.810;2023-06-24T11:04:44;99293.81;;;28.71;45.35
1616;BME280;801;47.982;7.810;2023-06-24T11:07:10;99291.88;;;28.36;44.17
1616;BME280;801;47.982;7.810;2023-06-24T11:09:40;99276.38;;;28.32;44.93
1616;BME280;801;47.982;7.810;2023-06-24T11:12:08;99274.00;;;27.95;45.29
1616;BME280;801;47.982;7.810;2023-06-24T11:14:35;99268.13;;;27.97;44.76
1616;BME280;801;47.982;7.810;2023-06-24T11:17:03;99268.66;;;27.86;43.48
1616;BME280;801;47.982;7.810;2023-06-24T11:19:30;99266.94;;;27.82;43.94
1616;BME280;801;47.982;7.810;2023-06-24T11:21:59;99253.16;;;28.17;43.32
1616;BME280;801;47.982;7.810;2023-06-24T11:24:26;99248.09;;;28.39;43.07
1616;BME280;801;47.982;7.810;2023-06-24T11:26:54;99244.44;;;28.15;42.33
1616;BME280;801;47.982;7.810;2023-06-24T11:29:20;99246.06;;;28.35;41.29
1616;BME280;801;47.982;7.810;2023-06-24T11:31:47;99234.56;;;28.33;41.01
1616;BME280;801;47.982;7.810;2023-06-24T11:34:14;99241.63;;;28.93;41.54
1616;BME280;801;47.982;7.810;2023-06-24T11:36:40;99239.03;;;29.23;39.91
1616;BME280;801;47.982;7.810;2023-06-24T11:39:07;99238.72;;;29.05;40.69
1616;BME280;801;47.982;7.810;2023-06-24T11:41:34;99229.69;;;29.58;42.34
1616;BME280;801;47.982;7.810;2023-06-24T11:44:05;99230.91;;;29.34;38.89
1616;BME280;801;47.982;7.810;2023-06-24T11:46:31;99223.56;;;29.18;38.82
1616;BME280;801;47.982;7.810;2023-06-24T11:49:03;99220.06;;;29.02;38.21
1616;BME280;801;47.982;7.810;2023-06-24T11:51:30;99231.06;;;29.45;37.89
1616;BME280;801;47.982;7.810;2023-06-24T11:53:59;99224.91;;;30.08;37.64
1616;BME280;801;47.982;7.810;2023-06-24T11:56:34;99216.38;;;30.24;36.91
1616;BME280;801;47.982;7.810;2023-06-24T11:59:05;99221.47;;;29.88;36.05
1616;BME280;801;47.982;7.810;2023-06-24T12:01:31;99216.09;;;29.49;35.72
1616;BME280;801;47.982;7.810;2023-06-24T12:03:59;99211.63;;;29.14;36.55
1616;BME280;801;47.982;7.810;2023-06-24T12:06:26;99199.72;;;29.37;37.32
1616;BME280;801;47.982;7.810;2023-06-24T12:08:53;99198.69;;;30.02;37.69
1616;BME280;801;47.982;7.810;2023-06-24T12:11:19;99205.03;;;30.70;36.44
1616;BME280;801;47.982;7.810;2023-06-24T12:13:46;99190.22;;;30.93;35.88
1616;BME280;801;47.982;7.810;2023-06-24T12:16:14;99201.63;;;31.29;35.80
1616;BME280;801;47.982;7.810;2023-06-24T12:18:40;99192.50;;;31.87;35.06
1616;BME280;801;47.982;7.810;2023-06-24T12:21:07;99198.84;;;31.88;34.92
1616;BME280;801;47.982;7.810;2023-06-24T12:23:33;99190.09;;;31.27;33.79
1616;BME280;801;47.982;7.810;2023-06-24T12:26:00;99186.94;;;31.87;33.25
1616;BME280;801;47.982;7.810;2023-06-24T12:28:26;99179.28;;;31.70;32.84
1616;BME280;801;47.982;7.810;2023-06-24T12:30:52;99172.47;;;31.56;32.60
1616;BME280;801;47.982;7.810;2023-06-24T12:33:20;99170.03;;;31.44;32.80
1616;BME280;801;47.982;7.810;2023-06-24T12:35:48;99176.19;;;31.85;32.95
1616;BME280;801;47.982;7.810;2023-06-24T12:38:14;99168.09;;;31.52;32.22
1616;BME280;801;47.982;7.810;2023-06-24T12:40:41;99170.28;;;31.94;33.57
1616;BME280;801;47.982;7.810;2023-06-24T12:43:08;99165.22;;;32.07;31.31
1616;BME280;801;47.982;7.810;2023-06-24T12:45:35;99161.09;;;31.83;29.99
1616;BME280;801;47.982;7.810;2023-06-24T12:48:01;99161.53;;;31.89;30.80
1616;BME280;801;47.982;7.810;2023-06-24T12:50:29;99158.47;;;32.04;30.85
1616;BME280;801;47.982;7.810;2023-06-24T12:52:56;99158.25;;;31.65;29.93
1616;BME280;801;47.982;7.810;2023-06-24T12:55:23;99161.91;;;31.83;30.40
1616;BME280;801;47.982;7.810;2023-06-24T12:57:49;99153.88;;;31.64;29.04
1616;BME280;801;47.982;7.810;2023-06-24T13:00:19;99146.84;;;31.26;29.93
1616;BME280;801;47.982;7.810;2023-06-24T13:02:46;99150.66;;;31.03;30.49
1616;BME280;801;47.982;7.810;2023-06-24T13:05:12;99146.66;;;31.52;30.28
1616;BME280;801;47.982;7.810;2023-06-24T13:07:40;99142.41;;;31.73;30.05
1616;BME280;801;47.982;7.810;2023-06-24T13:10:08;99157.53;;;31.86;29.66
1616;BME280;801;47.982;7.810;2023-06-24T13:12:35;99148.16;;;32.16;30.03
1616;BME280;801;47.982;7.810;2023-06-24T13:15:02;99149.00;;;32.31;29.78
1616;BME280;801;47.982;7.810;2023-06-24T13:17:29;99141.00;;;32.11;28.48
1616;BME280;801;47.982;7.810;2023-06-24T13:19:56;99146.66;;;32.43;30.48
1616;BME280;801;47.982;7.810;2023-06-24T13:22:22;99140.34;;;32.61;28.63
1616;BME280;801;47.982;7.810;2023-06-24T13:24:50;99145.88;;;32.46;28.92
1616;BME280;801;47.982;7.810;2023-06-24T13:27:17;99138.69;;;32.42;30.49
1616;BME280;801;47.982;7.810;2023-06-24T13:29:43;99141.94;;;32.62;28.15
1616;BME280;801;47.982;7.810;2023-06-24T13:32:10;99132.66;;;32.15;27.51